sensor_id;sensor_type;location;lat;lon;timestamp;pressure;altitude;pressure_sealevel;temperature;humidity
7824;BME280;3957;48.61947800;9.05303100;2023-05-03T00:00:40;96820.97;;;5.95;100.00
7824;BME280;3957;48.61947800;9.05303100;2023-05-03T00:01:42;96825.25;;;5.96;100.00
7824;BME280;3957;48.61947800;9.05303100;2023-05-03T00:02:44;96820.25;;;5.93;100.00
7824;BME280;3957;48.61947800;9.05303100;2023-05-03T00:03:46;96825.75;;;5.92;100.00
7824;BME280;3957;48.61947800;9.05303100;2023-05-03T00:04:51;96833.22;;;5.88;100.00
7824;BME280;3957;48.61947800;9.05303100;2023-05-03T00:05:54;96823.41;;;5.89;100.00
7824;BME280;3957;48.61947800;9.05303100;2023-05-03T00:06:55;96822.56;;;5.88;100.00
7824;BME280;3957;48.61947800;9.05303100;2023-05-03T00:07:57;96833.50;;;5.85;100.00
7824;BME280;3957;48.61947800;9.05303100;2023-05-03T00:08:58;96834.50;;;5.84;100.00
7824;BME280;3957;48.61947800;9.05303100;2023-05-03T00:10:02;96822.38;;;5.82;100.00
7824;BME280;3957;48.61947800;9.05303100;2023-05-03T00:11:05;96827.84;;;5.80;100.00
7824;BME280;3957;48.61947800;9.05303100;2023-05-03T00:12:06;96822.97;;;5.75;100.00
7824;BME280;3957;48.61947800;9.05303100;2023-05-03T00:13:08;96828.44;;;5.74;100.00
7824;BME280;3957;48.61947800;9.05303100;2023-05-03T00:14:10;96828.59;;;5.72;100.00
7824;BME280;3957;48.61947800;9.05303100;2023-05-03T00:15:11;96821.94;;;5.68;100.00
7824;BME280;3957;48.61947800;9.05303100;2023-05-03T00:16:13;96823.88;;;5.66;100.00
7824;BME280;3957;48.61947800;9.05303100;2023-05-03T00:17:15;96826.88;;;5.63;100.00
7824;BME280;3957;48.61947800;9.05303100;2023-05-03T00:18:16;96825.34;;;5.60;100.00
7824;BME280;3957;48.61947800;9.05303100;2023-05-03T00:19:18;96819.38;;;5.58;100.00
7824;BME280;3957;48.61947800;9.05303100;2023-05-03T00:20:31;96829.53;;;5.63;100.00
7824;BME280;3957;48.61947800;9.05303100;2023-05-03T00:21:33;96827.19;;;5.60;100.00
7824;BME280;3957;48.61947800;9.05303100;2023-05-03T00:22:35;96828.16;;;5.59;100.00
7824;BME280;3957;48.61947800;9.05303100;2023-05-03T00:23:37;96830.81;;;5.59;100.00
7824;BME280;3957;48.61947800;9.05303100;2023-05-03T00:24:38;96831.94;;;5.56;100.00
7824;BME280;3957;48.61947800;9.05303100;2023-05-03T00:25:40;96831.44;;;5.53;100.00
7824;BME280;3957;48.61947800;9.05303100;2023-05-03T00:26:41;96829.78;;;5.52;100.00
7824;BME280;3957;48.61947800;9.05303100;2023-05-03T00:27:43;96831.59;;;5.51;100.00
7824;BME280;3957;48.61947800;9.05303100;2023-05-03T00:28:44;96826.56;;;5.48;100.00
7824;BME280;3957;48.61947800;9.05303100;2023-05-03T00:29:46;96821.41;;;5.47;100.00
7824;BME280;3957;48.61947800;9.05303100;2023-05-03T00:30:48;96823.41;;;5.44;100.00
7824;BME280;3957;48.61947800;9.05303100;2023-05-03T00:31:49;96835.84;;;5.44;100.00
7824;BME280;3957;48.61947800;9.05303100;2023-05-03T00:32:51;96827.03;;;5.43;100.00
7824;BME280;3957;48.61947800;9.05303100;2023-05-03T00:33:53;96829.03;;;5.41;100.00
7824;BME280;3957;48.61947800;9.05303100;2023-05-03T00:34:55;96829.16;;;5.40;100.00
7824;BME280;3957;48.61947800;9.05303100;2023-05-03T00:35:57;96828.50;;;5.38;100.00
7824;BME280;3957;48.61947800;9.05303100;2023-05-03T00:36:59;96835.75;;;5.36;100.00
7824;BME280;3957;48.61947800;9.05303100;2023-05-03T00:38:01;96828.50;;;5.38;100.00
7824;BME280;3957;48.61947800;9.05303100;2023-05-03T00:39:03;96830.31;;;5.37;100.00
7824;BME280;3957;48.61947800;9.05303100;2023-05-03T00:40:05;96831.16;;;5.38;100.00
7824;BME280;3957;48.61947800;9.05303100;2023-05-03T00:41:10;96826.66;;;5.38;100.00
7824;BME280;3957;48.61947800;9.05303100;2023-05-03T00:42:13;96832.44;;;5.34;100.00
7824;BME280;3957;48.61947800;9.05303100;2023-05-03T00:43:15;96826.97;;;5.35;100.00
7824;BME280;3957;48.61947800;9.05303100;2023-05-03T00:44:16;96830.59;;;5.34;100.00
7824;BME280;3957;48.61947800;9.05303100;2023-05-03T00:45:18;96826.81;;;5.37;100.00
7824;BME280;3957;48.61947800;9.05303100;2023-05-03T00:46:19;96829.78;;;5.34;100.00
7824;BME280;3957;48.61947800;9.05303100;2023-05-03T00:47:21;96821.13;;;5.32;100.00
7824;BME280;3957;48.61947800;9.05303100;2023-05-03T00:48:23;96823.78;;;5.32;100.00
7824;BME280;3957;48.61947800;9.05303100;2023-05-03T00:49:25;96816.84;;;5.31;100.00
7824;BME280;3957;48.61947800;9.05303100;2023-05-03T00:50:27;96814.50;;;5.27;100.00
7824;BME280;3957;48.61947800;9.05303100;2023-05-03T00:51:29;96813.47;;;5.28;100.00
7824;BME280;3957;48.61947800;9.05303100;2023-05-03T00:52:30;96819.63;;;5.29;100.00
7824;BME280;3957;48.61947800;9.05303100;2023-05-03T00:53:32;96806.53;;;5.27;100.00
7824;BME280;3957;48.61947800;9.05303100;2023-05-03T00:54:33;96815.78;;;5.23;100.00
7824;BME280;3957;48.61947800;9.05303100;2023-05-03T00:55:36;96814.09;;;5.22;100.00
7824;BME280;3957;48.61947800;9.05303100;2023-05-03T00:56:38;96809.78;;;5.21;100.00
7824;BME280;3957;48.61947800;9.05303100;2023-05-03T00:57:52;96816.91;;;5.21;100.00
7824;BME280;3957;48.61947800;9.05303100;2023-05-03T00:58:54;96811.75;;;5.19;100.00
7824;BME280;3957;48.61947800;9.05303100;2023-05-03T00:59:56;96809.09;;;5.19;100.00
7824;BME280;3957;48.61947800;9.05303100;2023-05-03T01:00:58;96815.91;;;5.22;100.00
7824;BME280;3957;48.61947800;9.05303100;2023-05-03T01:02:00;96814.09;;;5.22;100.00
7824;BME280;3957;48.61947800;9.05303100;2023-05-03T01:03:02;96815.63;;;5.25;100.00
7824;BME280;3957;48.61947800;9.05303100;2023-05-03T01:04:05;96816.44;;;5.25;100.00
7824;BME280;3957;48.61947800;9.05303100;2023-05-03T01:05:08;96815.63;;;5.25;100.00
7824;BME280;3957;48.61947800;9.05303100;2023-05-03T01:07:47;96806.38;;;5.29;100.00
7824;BME280;3957;48.61947800;9.05303100;2023-05-03T01:09:31;96815.16;;;5.30;100.00
7824;BME280;3957;48.61947800;9.05303100;2023-05-03T01:10:54;96811.53;;;5.31;100.00
7824;BME280;3957;48.61947800;9.05303100;2023-05-03T01:12:08;96813.88;;;5.34;100.00
7824;BME280;3957;48.61947800;9.05303100;2023-05-03T01:13:43;96812.56;;;5.38;100.00
7824;BME280;3957;48.61947800;9.05303100;2023-05-03T01:15:06;96814.25;;;5.39;100.00
7824;BME280;3957;48.61947800;9.05303100;2023-05-03T01:17:46;96818.41;;;5.41;100.00
7824;BME280;3957;48.61947800;9.05303100;2023-05-03T01:18:50;96820.75;;;5.44;100.00
7824;BME280;3957;48.61947800;9.05303100;2023-05-03T01:19:58;96817.13;;;5.45;100.00
7824;BME280;3957;48.61947800;9.05303100;2023-05-03T01:21:04;96819.63;;;5.47;100.00
7824;BME280;3957;48.61947800;9.05303100;2023-05-03T01:22:16;96815.28;;;5.46;100.00
7824;BME280;3957;48.61947800;9.05303100;2023-05-03T01:23:27;96810.81;;;5.47;100.00
7824;BME280;3957;48.61947800;9.05303100;2023-05-03T01:24:32;96803.00;;;5.45;100.00
7824;BME280;3957;48.61947800;9.05303100;2023-05-03T01:25:36;96805.66;;;5.45;100.00
7824;BME280;3957;48.61947800;9.05303100;2023-05-03T01:26:37;96812.09;;;5.42;100.00
7824;BME280;3957;48.61947800;9.05303100;2023-05-03T01:27:40;96805.97;;;5.42;100.00
7824;BME280;3957;48.61947800;9.05303100;2023-05-03T01:28:42;96805.28;;;5.40;100.00
7824;BME280;3957;48.61947800;9.05303100;2023-05-03T01:29:43;96800.28;;;5.37;100.00
7824;BME280;3957;48.61947800;9.05303100;2023-05-03T01:30:47;96802.09;;;5.36;100.00
7824;BME280;3957;48.61947800;9.05303100;2023-05-03T01:31:56;96801.56;;;5.33;100.00
7824;BME280;3957;48.61947800;9.05303100;2023-05-03T01:33:15;96808.00;;;5.30;100.00
7824;BME280;3957;48.61947800;9.05303100;2023-05-03T01:34:30;96802.03;;;5.28;100.00
7824;BME280;3957;48.61947800;9.05303100;2023-05-03T01:36:01;96798.84;;;5.24;100.00
7824;BME280;3957;48.61947800;9.05303100;2023-05-03T01:37:07;96805.97;;;5.24;100.00
7824;BME280;3957;48.61947800;9.05303100;2023-05-03T01:38:11;96802.63;;;5.22;100.00
7824;BME280;3957;48.61947800;9.05303100;2023-05-03T01:39:26;96794.84;;;5.20;100.00
7824;BME280;3957;48.61947800;9.05303100;2023-05-03T01:40:31;96792.50;;;5.17;100.00
7824;BME280;3957;48.61947800;9.05303100;2023-05-03T01:41:35;96789.28;;;5.14;100.00
7824;BME280;3957;48.61947800;9.05303100;2023-05-03T01:42:38;96793.13;;;5.11;100.00
7824;BME280;3957;48.61947800;9.05303100;2023-05-03T01:43:40;96790.75;;;5.08;100.00
7824;BME280;3957;48.61947800;9.05303100;2023-05-03T01:44:44;96796.34;;;5.05;100.00
7824;BME280;3957;48.61947800;9.05303100;2023-05-03T01:45:47;96795.53;;;5.04;100.00
7824;BME280;3957;48.61947800;9.05303100;2023-05-03T01:46:49;96799.16;;;5.03;100.00
7824;BME280;3957;48.61947800;9.05303100;2023-05-03T01:47:51;96796.81;;;5.00;100.00
7824;BME280;3957;48.61947800;9.05303100;2023-05-03T01:48:53;96796.97;;;4.99;100.00
7824;BME280;3957;48.61947800;9.05303100;2023-05-03T01:49:55;96789.28;;;4.96;100.00
7824;BME280;3957;48.61947800;9.05303100;2023-05-03T01:50:57;96798.94;;;4.97;100.00
7824;BME280;3957;48.61947800;9.05303100;2023-05-03T01:51:58;96798.25;;;4.94;100.00
7824;BME280;3957;48.61947800;9.05303100;2023-05-03T01:52:59;96799.25;;;4.93;100.00
7824;BME280;3957;48.61947800;9.05303100;2023-05-03T01:54:01;96799.41;;;4.92;100.00
7824;BME280;3957;48.61947800;9.05303100;2023-05-03T01:55:03;96799.56;;;4.90;100.00
7824;BME280;3957;48.61947800;9.05303100;2023-05-03T01:56:05;96798.69;;;4.90;100.00
7824;BME280;3957;48.61947800;9.05303100;2023-05-03T01:57:08;96803.19;;;4.89;100.00
7824;BME280;3957;48.61947800;9.05303100;2023-05-03T01:58:10;96796.19;;;4.88;100.00
7824;BME280;3957;48.61947800;9.05303100;2023-05-03T01:59:12;96795.53;;;4.86;100.00
7824;BME280;3957;48.61947800;9.05303100;2023-05-03T02:00:14;96794.81;;;4.84;100.00
7824;BME280;3957;48.61947800;9.05303100;2023-05-03T02:01:17;96796.66;;;4.84;100.00
7824;BME280;3957;48.61947800;9.05303100;2023-05-03T02:02:19;96792.34;;;4.83;100.00
7824;BME280;3957;48.61947800;9.05303100;2023-05-03T02:03:20;96792.34;;;4.83;100.00
7824;BME280;3957;48.61947800;9.05303100;2023-05-03T02:04:22;96789.84;;;4.81;100.00
7824;BME280;3957;48.61947800;9.05303100;2023-05-03T02:05:25;96796.13;;;4.80;100.00
7824;BME280;3957;48.61947800;9.05303100;2023-05-03T02:06:27;96797.25;;;4.77;100.00
7824;BME280;3957;48.61947800;9.05303100;2023-05-03T02:07:33;96786.78;;;4.76;100.00
7824;BME280;3957;48.61947800;9.05303100;2023-05-03T02:08:34;96792.09;;;4.76;100.00
7824;BME280;3957;48.61947800;9.05303100;2023-05-03T02:09:36;96790.41;;;4.75;100.00
7824;BME280;3957;48.61947800;9.05303100;2023-05-03T02:10:37;96791.44;;;4.74;100.00
7824;BME280;3957;48.61947800;9.05303100;2023-05-03T02:11:39;96787.09;;;4.73;100.00
7824;BME280;3957;48.61947800;9.05303100;2023-05-03T02:12:41;96792.56;;;4.71;100.00
7824;BME280;3957;48.61947800;9.05303100;2023-05-03T02:13:44;96791.19;;;4.67;100.00
7824;BME280;3957;48.61947800;9.05303100;2023-05-03T02:14:49;96797.47;;;4.66;100.00
7824;BME280;3957;48.61947800;9.05303100;2023-05-03T02:15:51;96793.28;;;4.64;100.00
7824;BME280;3957;48.61947800;9.05303100;2023-05-03T02:16:53;96798.59;;;4.64;100.00
7824;BME280;3957;48.61947800;9.05303100;2023-05-03T02:17:56;96798.59;;;4.64;100.00
7824;BME280;3957;48.61947800;9.05303100;2023-05-03T02:18:59;96801.25;;;4.64;100.00
7824;BME280;3957;48.61947800;9.05303100;2023-05-03T02:20:01;96791.63;;;4.63;100.00
7824;BME280;3957;48.61947800;9.05303100;2023-05-03T02:21:03;96798.06;;;4.60;100.00
7824;BME280;3957;48.61947800;9.05303100;2023-05-03T02:22:05;96795.41;;;4.60;100.00
7824;BME280;3957;48.61947800;9.05303100;2023-05-03T02:23:06;96797.91;;;4.62;100.00
7824;BME280;3957;48.61947800;9.05303100;2023-05-03T02:24:08;96794.13;;;4.64;100.00
7824;BME280;3957;48.61947800;9.05303100;2023-05-03T02:25:09;96797.78;;;4.63;100.00
7824;BME280;3957;48.61947800;9.05303100;2023-05-03T02:26:11;96786.19;;;4.64;100.00
7824;BME280;3957;48.61947800;9.05303100;2023-05-03T02:27:12;96787.84;;;4.65;100.00
7824;BME280;3957;48.61947800;9.05303100;2023-05-03T02:28:16;96796.63;;;4.66;100.00
7824;BME280;3957;48.61947800;9.05303100;2023-05-03T02:29:18;96796.78;;;4.64;100.00
7824;BME280;3957;48.61947800;9.05303100;2023-05-03T02:30:20;96789.66;;;4.65;100.00
7824;BME280;3957;48.61947800;9.05303100;2023-05-03T02:31:21;96795.13;;;4.63;100.00
7824;BME280;3957;48.61947800;9.05303100;2023-05-03T02:32:23;96804.19;;;4.60;100.00
7824;BME280;3957;48.61947800;9.05303100;2023-05-03T02:33:25;96788.44;;;4.59;100.00
7824;BME280;3957;48.61947800;9.05303100;2023-05-03T02:34:27;96799.03;;;4.59;100.00
7824;BME280;3957;48.61947800;9.05303100;2023-05-03T02:35:29;96798.91;;;4.60;100.00
7824;BME280;3957;48.61947800;9.05303100;2023-05-03T02:36:30;96787.47;;;4.60;100.00
7824;BME280;3957;48.61947800;9.05303100;2023-05-03T02:37:34;96801.41;;;4.62;100.00
7824;BME280;3957;48.61947800;9.05303100;2023-05-03T02:38:41;96792.63;;;4.62;100.00
7824;BME280;3957;48.61947800;9.05303100;2023-05-03T02:39:42;96790.78;;;4.62;100.00
7824;BME280;3957;48.61947800;9.05303100;2023-05-03T02:40:46;96795.41;;;4.60;100.00
7824;BME280;3957;48.61947800;9.05303100;2023-05-03T02:41:47;96788.44;;;4.59;100.00
7824;BME280;3957;48.61947800;9.05303100;2023-05-03T02:42:50;96798.22;;;4.58;100.00
7824;BME280;3957;48.61947800;9.05303100;2023-05-03T02:43:57;96783.44;;;4.56;100.00
7824;BME280;3957;48.61947800;9.05303100;2023-05-03T02:45:00;96782.91;;;4.52;100.00
7824;BME280;3957;48.61947800;9.05303100;2023-05-03T02:46:03;96790.84;;;4.52;100.00
7824;BME280;3957;48.61947800;9.05303100;2023-05-03T02:47:06;96792.69;;;4.52;100.00
7824;BME280;3957;48.61947800;9.05303100;2023-05-03T02:48:09;96787.66;;;4.49;100.00
7824;BME280;3957;48.61947800;9.05303100;2023-05-03T02:49:11;96787.81;;;4.47;100.00
7824;BME280;3957;48.61947800;9.05303100;2023-05-03T02:50:13;96791.47;;;4.46;100.00
7824;BME280;3957;48.61947800;9.05303100;2023-05-03T02:51:15;96790.75;;;4.44;100.00
7824;BME280;3957;48.61947800;9.05303100;2023-05-03T02:52:16;96788.94;;;4.45;100.00
7824;BME280;3957;48.61947800;9.05303100;2023-05-03T02:53:18;96784.63;;;4.43;100.00
7824;BME280;3957;48.61947800;9.05303100;2023-05-03T02:54:20;96788.25;;;4.42;100.00
7824;BME280;3957;48.61947800;9.05303100;2023-05-03T02:55:21;96787.44;;;4.42;100.00
7824;BME280;3957;48.61947800;9.05303100;2023-05-03T02:56:24;96792.59;;;4.43;100.00
7824;BME280;3957;48.61947800;9.05303100;2023-05-03T02:57:29;96788.25;;;4.42;100.00
7824;BME280;3957;48.61947800;9.05303100;2023-05-03T02:58:31;96785.91;;;4.39;100.00
7824;BME280;3957;48.61947800;9.05303100;2023-05-03T02:59:34;96792.19;;;4.38;100.00
7824;BME280;3957;48.61947800;9.05303100;2023-05-03T03:00:37;96791.63;;;4.35;100.00
7824;BME280;3957;48.61947800;9.05303100;2023-05-03T03:01:38;96791.13;;;4.31;100.00
7824;BME280;3957;48.61947800;9.05303100;2023-05-03T03:02:40;96793.63;;;4.33;100.00
7824;BME280;3957;48.61947800;9.05303100;2023-05-03T03:03:43;96790.25;;;4.31;100.00
7824;BME280;3957;48.61947800;9.05303100;2023-05-03T03:04:45;96797.22;;;4.32;100.00
7824;BME280;3957;48.61947800;9.05303100;2023-05-03T03:05:46;96800.19;;;4.29;100.00
7824;BME280;3957;48.61947800;9.05303100;2023-05-03T03:06:49;96804.78;;;4.26;100.00
7824;BME280;3957;48.61947800;9.05303100;2023-05-03T03:07:53;96793.34;;;4.26;100.00
7824;BME280;3957;48.61947800;9.05303100;2023-05-03T03:08:55;96800.47;;;4.25;100.00
7824;BME280;3957;48.61947800;9.05303100;2023-05-03T03:09:57;96797.69;;;4.27;100.00
7824;BME280;3957;48.61947800;9.05303100;2023-05-03T03:10:59;96799.63;;;4.25;100.00
7824;BME280;3957;48.61947800;9.05303100;2023-05-03T03:12:00;96800.63;;;4.24;100.00
7824;BME280;3957;48.61947800;9.05303100;2023-05-03T03:13:06;96787.75;;;4.29;100.00
7824;BME280;3957;48.61947800;9.05303100;2023-05-03T03:14:11;96795.84;;;4.28;100.00
7824;BME280;3957;48.61947800;9.05303100;2023-05-03T03:15:13;96789.75;;;4.27;100.00
7824;BME280;3957;48.61947800;9.05303100;2023-05-03T03:16:15;96792.53;;;4.25;100.00
7824;BME280;3957;48.61947800;9.05303100;2023-05-03T03:17:17;96794.47;;;4.23;100.00
7824;BME280;3957;48.61947800;9.05303100;2023-05-03T03:18:18;96791.97;;;4.22;100.00
7824;BME280;3957;48.61947800;9.05303100;2023-05-03T03:19:20;96789.47;;;4.20;100.00
7824;BME280;3957;48.61947800;9.05303100;2023-05-03T03:20:22;96793.09;;;4.19;100.00
7824;BME280;3957;48.61947800;9.05303100;2023-05-03T03:21:23;96787.97;;;4.18;100.00
7824;BME280;3957;48.61947800;9.05303100;2023-05-03T03:22:25;96788.09;;;4.16;100.00
7824;BME280;3957;48.61947800;9.05303100;2023-05-03T03:23:26;96786.44;;;4.15;100.00
7824;BME280;3957;48.61947800;9.05303100;2023-05-03T03:24:28;96784.91;;;4.13;100.00
7824;BME280;3957;48.61947800;9.05303100;2023-05-03T03:25:29;96786.72;;;4.12;100.00
7824;BME280;3957;48.61947800;9.05303100;2023-05-03T03:26:31;96787.56;;;4.13;100.00
7824;BME280;3957;48.61947800;9.05303100;2023-05-03T03:27:33;96783.94;;;4.14;100.00
7824;BME280;3957;48.61947800;9.05303100;2023-05-03T03:28:37;96784.75;;;4.14;100.00
7824;BME280;3957;48.61947800;9.05303100;2023-05-03T03:29:43;96782.25;;;4.13;100.00
7824;BME280;3957;48.61947800;9.05303100;2023-05-03T03:30:47;96793.69;;;4.13;100.00
7824;BME280;3957;48.61947800;9.05303100;2023-05-03T03:31:54;96792.44;;;4.17;100.00
7824;BME280;3957;48.61947800;9.05303100;2023-05-03T03:32:57;96781.84;;;4.17;100.00
7824;BME280;3957;48.61947800;9.05303100;2023-05-03T03:34:05;96795.59;;;4.21;100.00
7824;BME280;3957;48.61947800;9.05303100;2023-05-03T03:35:08;96791.84;;;4.23;100.00
7824;BME280;3957;48.61947800;9.05303100;2023-05-03T03:36:10;96787.25;;;4.25;100.00
7824;BME280;3957;48.61947800;9.05303100;2023-05-03T03:37:15;96787.91;;;4.28;100.00
7824;BME280;3957;48.61947800;9.05303100;2023-05-03T03:38:17;96791.13;;;4.31;100.00
7824;BME280;3957;48.61947800;9.05303100;2023-05-03T03:39:27;96792.34;;;4.37;100.00
7824;BME280;3957;48.61947800;9.05303100;2023-05-03T03:40:28;96788.97;;;4.35;100.00
7824;BME280;3957;48.61947800;9.05303100;2023-05-03T03:41:32;96792.50;;;4.35;100.00
7824;BME280;3957;48.61947800;9.05303100;2023-05-03T03:42:34;96800.28;;;4.37;100.00
7824;BME280;3957;48.61947800;9.05303100;2023-05-03T03:43:37;96795.13;;;4.35;100.00
7824;BME280;3957;48.61947800;9.05303100;2023-05-03T03:44:43;96790.66;;;4.36;100.00
7824;BME280;3957;48.61947800;9.05303100;2023-05-03T03:45:45;96797.63;;;4.37;100.00
7824;BME280;3957;48.61947800;9.05303100;2023-05-03T03:46:48;96790.66;;;4.36;100.00
7824;BME280;3957;48.61947800;9.05303100;2023-05-03T03:47:51;96792.19;;;4.38;100.00
7824;BME280;3957;48.61947800;9.05303100;2023-05-03T03:48:55;96789.69;;;4.37;100.00
7824;BME280;3957;48.61947800;9.05303100;2023-05-03T03:50:00;96794.97;;;4.37;100.00
7824;BME280;3957;48.61947800;9.05303100;2023-05-03T03:51:06;96792.19;;;4.38;100.00
7824;BME280;3957;48.61947800;9.05303100;2023-05-03T03:52:13;96796.34;;;4.41;100.00
7824;BME280;3957;48.61947800;9.05303100;2023-05-03T03:53:15;96797.72;;;4.45;100.00
7824;BME280;3957;48.61947800;9.05303100;2023-05-03T03:54:17;96791.47;;;4.46;100.00
7824;BME280;3957;48.61947800;9.05303100;2023-05-03T03:55:22;96795.75;;;4.47;100.00
7824;BME280;3957;48.61947800;9.05303100;2023-05-03T03:56:26;96800.47;;;4.53;100.00
7824;BME280;3957;48.61947800;9.05303100;2023-05-03T03:57:29;96791.25;;;4.57;100.00
7824;BME280;3957;48.61947800;9.05303100;2023-05-03T03:58:32;96801.09;;;4.65;100.00
7824;BME280;3957;48.61947800;9.05303100;2023-05-03T03:59:36;96796.78;;;4.64;100.00
7824;BME280;3957;48.61947800;9.05303100;2023-05-03T04:00:37;96797.63;;;4.65;100.00
7824;BME280;3957;48.61947800;9.05303100;2023-05-03T04:01:45;96794.13;;;4.64;100.00
7824;BME280;3957;48.61947800;9.05303100;2023-05-03T04:02:47;96794.97;;;4.65;100.00
7824;BME280;3957;48.61947800;9.05303100;2023-05-03T04:03:51;96793.44;;;4.62;100.00
7824;BME280;3957;48.61947800;9.05303100;2023-05-03T04:04:53;96793.44;;;4.62;100.00
7824;BME280;3957;48.61947800;9.05303100;2023-05-03T04:05:55;96794.41;;;4.61;100.00
7824;BME280;3957;48.61947800;9.05303100;2023-05-03T04:06:57;96799.72;;;4.61;100.00
7824;BME280;3957;48.61947800;9.05303100;2023-05-03T04:08:00;96798.16;;;4.68;100.00
7824;BME280;3957;48.61947800;9.05303100;2023-05-03T04:09:04;96794.66;;;4.68;100.00
7824;BME280;3957;48.61947800;9.05303100;2023-05-03T04:10:08;96793.13;;;4.65;100.00
7824;BME280;3957;48.61947800;9.05303100;2023-05-03T04:11:12;96799.66;;;4.71;100.00
7824;BME280;3957;48.61947800;9.05303100;2023-05-03T04:12:19;96808.16;;;4.74;100.00
7824;BME280;3957;48.61947800;9.05303100;2023-05-03T04:13:21;96807.34;;;4.74;100.00
7824;BME280;3957;48.61947800;9.05303100;2023-05-03T04:14:26;96809.13;;;4.73;100.00
7824;BME280;3957;48.61947800;9.05303100;2023-05-03T04:15:27;96808.00;;;4.76;100.00
7824;BME280;3957;48.61947800;9.05303100;2023-05-03T04:16:31;96800.75;;;4.78;100.00
7824;BME280;3957;48.61947800;9.05303100;2023-05-03T04:17:35;96810.34;;;4.79;100.00
7824;BME280;3957;48.61947800;9.05303100;2023-05-03T04:18:40;96816.03;;;4.84;100.00
7824;BME280;3957;48.61947800;9.05303100;2023-05-03T04:19:43;96814.44;;;4.91;100.00
7824;BME280;3957;48.61947800;9.05303100;2023-05-03T04:20:45;96815.00;;;4.95;100.00
7824;BME280;3957;48.61947800;9.05303100;2023-05-03T04:21:49;96822.34;;;5.01;100.00
7824;BME280;3957;48.61947800;9.05303100;2023-05-03T04:22:53;96820.78;;;5.08;100.00
7824;BME280;3957;48.61947800;9.05303100;2023-05-03T04:23:57;96825.16;;;5.18;100.00
7824;BME280;3957;48.61947800;9.05303100;2023-05-03T04:25:00;96827.06;;;5.25;100.00
7824;BME280;3957;48.61947800;9.05303100;2023-05-03T04:26:04;96825.16;;;5.36;100.00
7824;BME280;3957;48.61947800;9.05303100;2023-05-03T04:27:07;96821.75;;;5.43;100.00
7824;BME280;3957;48.61947800;9.05303100;2023-05-03T04:28:12;96831.59;;;5.51;100.00
7824;BME280;3957;48.61947800;9.05303100;2023-05-03T04:29:20;96827.50;;;5.57;100.00
7824;BME280;3957;48.61947800;9.05303100;2023-05-03T04:30:22;96830.50;;;5.62;100.00
7824;BME280;3957;48.61947800;9.05303100;2023-05-03T04:31:27;96830.56;;;5.70;100.00
7824;BME280;3957;48.61947800;9.05303100;2023-05-03T04:32:31;96829.63;;;5.79;100.00
7824;BME280;3957;48.61947800;9.05303100;2023-05-03T04:33:42;96826.22;;;5.87;100.00
7824;BME280;3957;48.61947800;9.05303100;2023-05-03T04:34:43;96830.56;;;5.88;100.00
7824;BME280;3957;48.61947800;9.05303100;2023-05-03T04:35:50;96831.53;;;5.87;100.00
7824;BME280;3957;48.61947800;9.05303100;2023-05-03T04:36:52;96824.75;;;5.93;100.00
7824;BME280;3957;48.61947800;9.05303100;2023-05-03T04:37:53;96827.91;;;5.96;100.00
7824;BME280;3957;48.61947800;9.05303100;2023-05-03T04:38:57;96835.16;;;6.04;100.00
7824;BME280;3957;48.61947800;9.05303100;2023-05-03T04:40:00;96823.59;;;6.13;100.00
7824;BME280;3957;48.61947800;9.05303100;2023-05-03T04:41:02;96825.38;;;6.13;100.00
7824;BME280;3957;48.61947800;9.05303100;2023-05-03T04:42:04;96825.38;;;6.13;100.00
7824;BME280;3957;48.61947800;9.05303100;2023-05-03T04:43:06;96830.09;;;6.19;100.00
7824;BME280;3957;48.61947800;9.05303100;2023-05-03T04:44:11;96833.56;;;6.20;100.00
7824;BME280;3957;48.61947800;9.05303100;2023-05-03T04:45:13;96824.44;;;6.22;100.00
7824;BME280;3957;48.61947800;9.05303100;2023-05-03T04:46:15;96831.75;;;6.20;100.00
7824;BME280;3957;48.61947800;9.05303100;2023-05-03T04:47:19;96831.44;;;6.23;100.00
7824;BME280;3957;48.61947800;9.05303100;2023-05-03T04:48:21;96840.22;;;6.24;100.00
7824;BME280;3957;48.61947800;9.05303100;2023-05-03T04:49:23;96832.78;;;6.27;100.00
7824;BME280;3957;48.61947800;9.05303100;2023-05-03T04:50:25;96834.97;;;6.32;100.00
7824;BME280;3957;48.61947800;9.05303100;2023-05-03T04:51:27;96830.34;;;6.34;100.00
7824;BME280;3957;48.61947800;9.05303100;2023-05-03T04:52:31;96832.16;;;6.34;100.00
7824;BME280;3957;48.61947800;9.05303100;2023-05-03T04:53:33;96824.53;;;6.39;100.00
7824;BME280;3957;48.61947800;9.05303100;2023-05-03T04:54:43;96836.34;;;6.44;100.00
7824;BME280;3957;48.61947800;9.05303100;2023-05-03T04:55:46;96830.53;;;6.41;100.00
7824;BME280;3957;48.61947800;9.05303100;2023-05-03T04:56:48;96831.94;;;6.53;100.00
7824;BME280;3957;48.61947800;9.05303100;2023-05-03T04:57:51;96836.91;;;6.56;100.00
7824;BME280;3957;48.61947800;9.05303100;2023-05-03T04:58:53;96834.41;;;6.55;100.00
7824;BME280;3957;48.61947800;9.05303100;2023-05-03T04:59:55;96836.91;;;6.56;100.00
7824;BME280;3957;48.61947800;9.05303100;2023-05-03T05:00:57;96834.59;;;6.61;100.00
7824;BME280;3957;48.61947800;9.05303100;2023-05-03T05:02:02;96837.59;;;6.67;100.00
7824;BME280;3957;48.61947800;9.05303100;2023-05-03T05:03:04;96832.97;;;6.69;100.00
7824;BME280;3957;48.61947800;9.05303100;2023-05-03T05:04:07;96835.31;;;6.72;100.00
7824;BME280;3957;48.61947800;9.05303100;2023-05-03T05:05:15;96834.63;;;6.70;100.00
7824;BME280;3957;48.61947800;9.05303100;2023-05-03T05:06:21;96831.00;;;6.79;100.00
7824;BME280;3957;48.61947800;9.05303100;2023-05-03T05:07:23;96834.34;;;6.81;100.00